createdAt,value
2023-04-20T00:00:49.011Z,8.10
2023-04-20T00:03:18.397Z,7.78
2023-04-20T00:05:45.484Z,8.07
2023-04-20T00:08:12.265Z,7.80
2023-04-20T00:10:39.022Z,7.75
2023-04-20T00:13:05.843Z,8.20
2023-04-20T00:15:33.364Z,8.48
2023-04-20T00:18:00.224Z,8.65
2023-04-20T00:20:27.681Z,7.93
2023-04-20T00:22:54.704Z,8.55
2023-04-20T00:25:21.494Z,8.25
2023-04-20T00:27:48.382Z,8.88
2023-04-20T00:30:15.668Z,8.75
2023-04-20T00:32:42.473Z,8.75
2023-04-20T00:35:09.868Z,9.00
2023-04-20T00:37:36.663Z,9.43
2023-04-20T00:40:04.099Z,9.88
2023-04-20T00:42:30.869Z,8.95
2023-04-20T00:44:57.653Z,8.90
2023-04-20T00:47:24.490Z,9.05
2023-04-20T00:49:53.035Z,8.75
2023-04-20T00:52:21.211Z,8.93
2023-04-20T00:54:48.615Z,9.20
2023-04-20T00:57:18.495Z,9.85
2023-04-20T00:59:45.925Z,11.18
2023-04-20T01:02:12.690Z,11.82
2023-04-20T01:04:40.056Z,11.85
2023-04-20T01:07:07.228Z,12.63
2023-04-20T01:09:34.005Z,13.00
2023-04-20T01:12:01.791Z,12.48
2023-04-20T01:14:28.778Z,12.52
2023-04-20T01:16:55.651Z,13.50
2023-04-20T01:19:22.666Z,13.73
2023-04-20T01:21:49.464Z,14.73
2023-04-20T01:24:16.277Z,14.35
2023-04-20T01:26:43.084Z,15.20
2023-04-20T01:29:09.902Z,15.75
2023-04-20T01:31:37.021Z,15.48
2023-04-20T01:34:03.870Z,15.77
2023-04-20T01:36:30.857Z,15.93
2023-04-20T01:38:57.711Z,16.00
2023-04-20T01:41:24.765Z,17.20
2023-04-20T01:43:51.733Z,14.85
2023-04-20T01:46:18.485Z,17.83
2023-04-20T01:48:45.390Z,15.32
2023-04-20T01:51:12.133Z,14.85
2023-04-20T01:53:38.966Z,13.45
2023-04-20T01:56:05.992Z,14.40
2023-04-20T01:58:32.737Z,13.80
2023-04-20T02:01:02.191Z,13.13
2023-04-20T02:03:29.537Z,11.90
2023-04-20T02:05:56.512Z,12.13
2023-04-20T02:08:23.359Z,11.95
2023-04-20T02:10:50.254Z,13.57
2023-04-20T02:13:17.074Z,12.95
2023-04-20T02:15:43.903Z,12.60
2023-04-20T02:18:10.734Z,12.77
2023-04-20T02:20:37.602Z,14.10
2023-04-20T02:23:04.330Z,13.43
2023-04-20T02:25:31.202Z,14.13
2023-04-20T02:27:57.948Z,13.77
2023-04-20T02:30:24.726Z,13.82
2023-04-20T02:32:52.012Z,14.27
2023-04-20T02:35:19.087Z,13.88
2023-04-20T02:37:46.764Z,15.70
2023-04-20T02:40:14.078Z,16.90
2023-04-20T02:42:41.135Z,18.05
2023-04-20T02:45:08.544Z,18.42
2023-04-20T02:47:35.346Z,18.48
2023-04-20T02:50:02.091Z,19.77
2023-04-20T02:52:28.852Z,18.35
2023-04-20T02:54:55.574Z,19.45
2023-04-20T02:57:29.904Z,20.30
2023-04-20T02:59:56.691Z,20.17
2023-04-20T03:02:23.615Z,18.75
2023-04-20T03:04:50.739Z,17.45
2023-04-20T03:07:18.387Z,17.45
2023-04-20T03:09:45.315Z,18.98
2023-04-20T03:12:12.056Z,18.42
2023-04-20T03:14:38.813Z,19.20
2023-04-20T03:17:05.584Z,19.95
2023-04-20T03:19:32.285Z,19.23
2023-04-20T03:21:59.035Z,20.25
2023-04-20T03:24:25.814Z,20.85
2023-04-20T03:26:52.571Z,20.20
2023-04-20T03:29:19.515Z,20.45
2023-04-20T03:31:46.750Z,20.42
2023-04-20T03:34:13.599Z,20.55
2023-04-20T03:36:40.463Z,21.40
2023-04-20T03:39:07.397Z,22.80
2023-04-20T03:41:34.241Z,15.48
2023-04-20T03:44:01.054Z,15.18
2023-04-20T03:46:28.317Z,15.30
2023-04-20T03:48:55.192Z,14.23
2023-04-20T03:51:21.953Z,17.42
2023-04-20T03:53:48.713Z,16.05
2023-04-20T03:56:15.502Z,14.45
2023-04-20T03:58:42.284Z,13.27
2023-04-20T04:01:10.078Z,16.35
2023-04-20T04:03:37.622Z,15.18
2023-04-20T04:06:04.942Z,15.23
2023-04-20T04:08:32.234Z,12.15
2023-04-20T04:11:00.408Z,11.98
2023-04-20T04:13:27.097Z,12.30
2023-04-20T04:15:53.948Z,12.32
2023-04-20T04:18:21.902Z,12.40
2023-04-20T04:20:48.743Z,11.43
2023-04-20T04:23:15.539Z,11.25
2023-04-20T04:25:42.535Z,10.57
2023-04-20T04:28:09.370Z,11.45
2023-04-20T04:30:36.146Z,11.32
2023-04-20T04:33:05.009Z,9.20
2023-04-20T04:35:33.407Z,8.73
2023-04-20T04:38:01.081Z,8.27
2023-04-20T04:40:27.929Z,8.75
2023-04-20T04:42:55.626Z,11.30
2023-04-20T04:45:25.381Z,11.50
2023-04-20T04:47:53.950Z,11.80
2023-04-20T04:50:22.132Z,10.38
2023-04-20T04:52:48.983Z,9.38
2023-04-20T04:55:16.538Z,7.13
2023-04-20T04:57:43.576Z,5.63
2023-04-20T05:00:12.498Z,5.28
2023-04-20T05:02:40.205Z,4.88
2023-04-20T05:05:09.970Z,4.47
2023-04-20T05:07:38.327Z,3.33
2023-04-20T05:10:06.184Z,3.15
2023-04-20T05:12:33.212Z,2.40
2023-04-20T05:15:00.057Z,2.13
2023-04-20T05:17:26.982Z,1.67
2023-04-20T05:19:53.793Z,2.17
2023-04-20T05:22:20.805Z,2.00
2023-04-20T05:24:47.584Z,2.20
2023-04-20T05:27:14.378Z,2.00
2023-04-20T05:29:41.163Z,2.08
2023-04-20T05:32:08.362Z,2.08
2023-04-20T05:34:35.370Z,1.40
2023-04-20T05:37:04.316Z,1.75
2023-04-20T05:39:31.298Z,1.75
2023-04-20T05:41:58.276Z,1.98
2023-04-20T05:44:25.031Z,1.20
2023-04-20T05:46:51.923Z,1.48
2023-04-20T05:49:19.000Z,1.50
2023-04-20T05:51:46.624Z,1.67
2023-04-20T05:54:13.440Z,1.30
2023-04-20T05:56:40.738Z,1.23
2023-04-20T05:59:08.480Z,1.20
2023-04-20T06:01:35.539Z,1.13
2023-04-20T06:04:07.105Z,1.23
2023-04-20T06:06:34.564Z,1.00
2023-04-20T06:09:01.530Z,1.40
2023-04-20T06:11:28.340Z,1.38
2023-04-20T06:13:55.172Z,1.92
2023-04-20T06:16:22.085Z,1.33
2023-04-20T06:18:49.008Z,1.20
2023-04-20T06:21:17.427Z,1.13
2023-04-20T06:23:47.225Z,1.60
2023-04-20T06:26:14.010Z,1.48
2023-04-20T06:28:41.059Z,1.35
2023-04-20T06:31:07.982Z,1.40
2023-04-20T06:33:38.420Z,1.10
2023-04-20T06:36:08.616Z,1.40
2023-04-20T06:38:35.815Z,1.40
2023-04-20T06:41:02.933Z,1.20
2023-04-20T06:43:31.384Z,1.17
2023-04-20T06:45:58.355Z,0.95
2023-04-20T06:48:31.975Z,0.90
2023-04-20T06:50:59.589Z,0.90
2023-04-20T06:53:26.436Z,1.08
2023-04-20T06:55:56.300Z,1.00
2023-04-20T06:58:23.197Z,1.05
2023-04-20T07:00:52.714Z,1.13
2023-04-20T07:03:19.774Z,0.70
2023-04-20T07:05:46.954Z,1.52
2023-04-20T07:08:16.177Z,0.88
2023-04-20T07:10:43.256Z,0.90
2023-04-20T07:13:10.274Z,1.00
2023-04-20T07:15:37.099Z,1.33
2023-04-20T07:18:04.026Z,1.08
2023-04-20T07:20:31.525Z,0.90
2023-04-20T07:22:58.346Z,0.82
2023-04-20T07:25:26.022Z,0.80
2023-04-20T07:27:55.266Z,0.93
2023-04-20T07:30:23.552Z,1.13
2023-04-20T07:32:50.524Z,0.90
2023-04-20T07:35:17.438Z,1.00
2023-04-20T07:37:44.266Z,1.20
2023-04-20T07:40:11.320Z,1.13
2023-04-20T07:42:38.239Z,2.40
2023-04-20T07:45:10.342Z,5.57
2023-04-20T07:47:37.670Z,7.22
2023-04-20T07:50:06.061Z,2.30
2023-04-20T07:52:33.689Z,8.38
2023-04-20T07:55:00.586Z,2.78
2023-04-20T07:57:28.724Z,1.10
2023-04-20T07:59:55.794Z,0.90
2023-04-20T08:02:22.720Z,1.10
2023-04-20T08:04:54.432Z,1.00
2023-04-20T08:07:27.478Z,1.30
2023-04-20T08:09:54.259Z,1.00
2023-04-20T08:12:21.040Z,1.30
2023-04-20T08:14:48.405Z,1.30
2023-04-20T08:17:15.503Z,0.90
2023-04-20T08:19:44.662Z,1.20
2023-04-20T08:22:12.813Z,1.48
2023-04-20T08:24:39.748Z,1.60
2023-04-20T08:27:09.008Z,1.30
2023-04-20T08:29:36.744Z,1.13
2023-04-20T08:32:04.044Z,1.30
2023-04-20T08:34:30.862Z,1.10
2023-04-20T08:36:57.689Z,1.27
2023-04-20T08:39:24.593Z,1.20
2023-04-20T08:41:56.010Z,1.27
2023-04-20T08:44:23.673Z,1.08
2023-04-20T08:46:51.449Z,1.13
2023-04-20T08:49:21.098Z,0.85
2023-04-20T08:51:49.104Z,0.90
2023-04-20T08:54:18.653Z,1.00
2023-04-20T08:56:47.756Z,0.90
2023-04-20T08:59:16.798Z,0.90
2023-04-20T09:01:44.771Z,1.05
2023-04-20T09:04:25.133Z,1.95
2023-04-20T09:07:01.473Z,1.33
2023-04-20T09:09:28.542Z,1.60
2023-04-20T09:12:07.548Z,1.73
2023-04-20T09:14:45.341Z,1.40
2023-04-20T09:17:14.706Z,1.50
2023-04-20T09:19:44.251Z,1.55
2023-04-20T09:22:11.226Z,1.80
2023-04-20T09:24:40.137Z,1.45
2023-04-20T09:27:17.296Z,1.50
2023-04-20T09:29:44.579Z,1.50
2023-04-20T09:32:25.110Z,1.63
2023-04-20T09:34:51.996Z,1.80
2023-04-20T09:37:18.909Z,1.60
2023-04-20T09:39:46.560Z,1.77
2023-04-20T09:42:14.796Z,1.48
2023-04-20T09:44:41.950Z,2.30
2023-04-20T09:47:08.910Z,2.58
2023-04-20T09:49:36.094Z,2.10
2023-04-20T09:52:06.979Z,2.00
2023-04-20T09:54:33.876Z,1.73
2023-04-20T09:57:01.866Z,2.45
2023-04-20T09:59:29.932Z,2.30
2023-04-20T10:01:58.566Z,1.83
2023-04-20T10:04:25.686Z,2.03
2023-04-20T10:07:03.574Z,2.00
2023-04-20T10:09:31.581Z,2.22
2023-04-20T10:12:10.249Z,2.20
2023-04-20T10:14:37.890Z,2.22
2023-04-20T10:17:07.286Z,2.28
2023-04-20T10:19:44.123Z,2.45
2023-04-20T10:22:25.492Z,2.88
2023-04-20T10:24:52.466Z,3.47
2023-04-20T10:27:20.991Z,3.13
2023-04-20T10:29:49.088Z,2.53
2023-04-20T10:32:26.995Z,2.97
2023-04-20T10:35:10.871Z,2.90
2023-04-20T10:37:51.290Z,2.75
2023-04-20T10:40:28.290Z,3.00
2023-04-20T10:42:55.285Z,3.30
2023-04-20T10:45:33.853Z,3.38
2023-04-20T10:48:09.695Z,3.65
2023-04-20T10:50:37.084Z,3.60
2023-04-20T10:53:04.740Z,3.38
2023-04-20T10:55:31.636Z,3.20
2023-04-20T10:57:58.437Z,3.20
2023-04-20T11:00:28.252Z,3.90
2023-04-20T11:02:56.841Z,3.65
2023-04-20T11:05:26.438Z,3.88
2023-04-20T11:08:01.214Z,4.40
2023-04-20T11:10:39.792Z,3.97
2023-04-20T11:13:07.439Z,4.47
2023-04-20T11:15:37.279Z,5.13
2023-04-20T11:18:11.995Z,4.82
2023-04-20T11:20:53.286Z,4.95
2023-04-20T11:23:21.642Z,4.95
2023-04-20T11:25:52.709Z,4.30
2023-04-20T11:28:19.555Z,4.50
2023-04-20T11:30:47.084Z,5.53
2023-04-20T11:33:14.313Z,4.45
2023-04-20T11:35:43.826Z,5.65
2023-04-20T11:38:11.428Z,5.22
2023-04-20T11:40:38.560Z,5.75
2023-04-20T11:43:05.302Z,4.53
2023-04-20T11:45:36.808Z,4.88
2023-04-20T11:48:05.102Z,5.05
2023-04-20T11:50:32.044Z,3.97
2023-04-20T11:52:58.839Z,4.78
2023-04-20T11:55:25.827Z,4.57
2023-04-20T11:57:52.779Z,4.30
2023-04-20T12:00:20.494Z,4.60
2023-04-20T12:02:48.095Z,4.32
2023-04-20T12:05:15.269Z,4.35
2023-04-20T12:07:43.388Z,4.18
2023-04-20T12:10:10.506Z,3.80
2023-04-20T12:12:38.789Z,3.95
2023-04-20T12:15:06.685Z,2.10
2023-04-20T12:17:33.935Z,3.72
2023-04-20T12:20:01.184Z,3.22
2023-04-20T12:22:28.104Z,2.83
2023-04-20T12:24:54.985Z,3.50
2023-04-20T12:27:21.871Z,3.33
2023-04-20T12:29:48.753Z,3.60
2023-04-20T12:32:15.665Z,2.90
2023-04-20T12:34:42.447Z,3.70
2023-04-20T12:37:09.468Z,2.75
2023-04-20T12:39:36.250Z,2.50
2023-04-20T12:42:03.636Z,2.60
2023-04-20T12:44:30.818Z,2.67
2023-04-20T12:46:57.653Z,2.40
2023-04-20T12:49:27.102Z,2.80
2023-04-20T12:51:54.101Z,2.30
2023-04-20T12:54:21.139Z,2.13
2023-04-20T12:56:47.939Z,2.03
2023-04-20T12:59:14.979Z,2.90
2023-04-20T13:01:41.813Z,3.08
2023-04-20T13:04:09.129Z,2.17
2023-04-20T13:06:36.161Z,1.95
2023-04-20T13:09:04.124Z,2.47
2023-04-20T13:11:31.043Z,1.52
2023-04-20T13:13:58.246Z,1.60
2023-04-20T13:16:25.256Z,1.23
2023-04-20T13:18:52.337Z,1.00
2023-04-20T13:21:19.146Z,1.27
2023-04-20T13:23:46.015Z,1.27
2023-04-20T13:26:13.023Z,0.93
2023-04-20T13:28:39.992Z,0.93
2023-04-20T13:31:06.833Z,1.25
2023-04-20T13:33:34.436Z,1.08
2023-04-20T13:36:01.252Z,1.10
2023-04-20T13:38:28.055Z,1.17
2023-04-20T13:40:54.824Z,0.95
2023-04-20T13:43:21.876Z,0.82
2023-04-20T13:45:49.063Z,1.00
2023-04-20T13:48:15.948Z,1.00
2023-04-20T13:50:42.731Z,0.70
2023-04-20T13:53:09.615Z,0.60
2023-04-20T13:55:36.973Z,0.70
2023-04-20T13:58:03.768Z,1.10
2023-04-20T14:00:33.071Z,0.80
2023-04-20T14:03:02.249Z,0.90
2023-04-20T14:05:29.149Z,0.85
2023-04-20T14:07:56.519Z,0.73
2023-04-20T14:10:23.308Z,0.90
2023-04-20T14:12:50.689Z,0.68
2023-04-20T14:15:20.631Z,0.68
2023-04-20T14:17:48.512Z,1.25
2023-04-20T14:20:16.518Z,0.63
2023-04-20T14:22:43.799Z,0.60
2023-04-20T14:25:11.022Z,0.60
2023-04-20T14:27:37.949Z,0.80
2023-04-20T14:30:05.500Z,0.80
2023-04-20T14:32:34.110Z,0.80
2023-04-20T14:35:01.147Z,1.05
2023-04-20T14:37:28.670Z,0.80
2023-04-20T14:39:55.632Z,0.70
2023-04-20T14:42:23.227Z,1.00
2023-04-20T14:44:50.704Z,0.80
2023-04-20T14:47:17.901Z,0.95
2023-04-20T14:49:44.768Z,1.00
2023-04-20T14:52:11.909Z,1.33
2023-04-20T14:54:38.970Z,1.00
2023-04-20T14:57:06.082Z,1.10
2023-04-20T14:59:33.922Z,1.40
2023-04-20T15:02:02.761Z,1.30
2023-04-20T15:04:30.878Z,1.48
2023-04-20T15:06:58.341Z,1.70
2023-04-20T15:09:25.519Z,1.58
2023-04-20T15:11:52.261Z,1.40
2023-04-20T15:14:20.711Z,1.88
2023-04-20T15:16:47.618Z,1.05
2023-04-20T15:19:14.517Z,1.55
2023-04-20T15:21:42.684Z,1.70
2023-04-20T15:24:11.729Z,1.60
2023-04-20T15:26:38.500Z,1.95
2023-04-20T15:29:05.261Z,1.58
2023-04-20T15:31:34.440Z,2.03
2023-04-20T15:34:01.343Z,2.22
2023-04-20T15:36:28.678Z,1.98
2023-04-20T15:38:57.941Z,2.17
2023-04-20T15:41:26.454Z,2.63
2023-04-20T15:43:53.550Z,2.35
2023-04-20T15:46:24.324Z,2.60
2023-04-20T15:48:51.319Z,2.55
2023-04-20T15:51:20.257Z,2.58
2023-04-20T15:53:50.797Z,2.17
2023-04-20T15:56:22.220Z,2.03
2023-04-20T15:58:50.364Z,2.92
2023-04-20T16:01:20.575Z,2.70
2023-04-20T16:03:49.865Z,2.47
2023-04-20T16:06:17.085Z,2.80
2023-04-20T16:08:44.112Z,2.63
2023-04-20T16:11:13.631Z,2.10
2023-04-20T16:13:40.671Z,2.55
2023-04-20T16:16:07.951Z,2.90
2023-04-20T16:18:35.297Z,1.85
2023-04-20T16:21:02.354Z,5.78
2023-04-20T16:23:29.477Z,1.98
2023-04-20T16:25:58.990Z,1.95
2023-04-20T16:28:26.545Z,2.00
2023-04-20T16:30:53.409Z,2.10
2023-04-20T16:33:20.846Z,2.00
2023-04-20T16:35:47.761Z,1.70
2023-04-20T16:38:14.636Z,1.60
2023-04-20T16:40:43.523Z,1.63
2023-04-20T16:43:10.800Z,1.77
2023-04-20T16:45:39.113Z,1.75
2023-04-20T16:48:06.076Z,1.15
2023-04-20T16:50:33.129Z,1.70
2023-04-20T16:53:00.026Z,1.30
2023-04-20T16:55:40.860Z,1.50
2023-04-20T16:58:07.667Z,1.45
2023-04-20T17:00:34.967Z,1.30
2023-04-20T17:03:07.317Z,1.30
2023-04-20T17:05:40.214Z,1.40
2023-04-20T17:08:08.421Z,1.15
2023-04-20T17:10:37.425Z,1.23
2023-04-20T17:13:04.380Z,1.25
2023-04-20T17:15:31.380Z,1.58
2023-04-20T17:17:58.889Z,1.63
2023-04-20T17:20:26.135Z,1.27
2023-04-20T17:22:52.910Z,1.55
2023-04-20T17:25:19.751Z,1.60
2023-04-20T17:27:46.732Z,1.98
2023-04-20T17:30:14.036Z,1.55
2023-04-20T17:32:40.852Z,2.00
2023-04-20T17:35:08.229Z,1.83
2023-04-20T17:37:36.455Z,2.60
2023-04-20T17:40:08.497Z,2.20
2023-04-20T17:45:02.155Z,1.92
2023-04-20T17:47:31.157Z,2.13
2023-04-20T17:49:59.903Z,2.30
2023-04-20T17:52:26.924Z,2.22
2023-04-20T17:54:55.348Z,2.15
2023-04-20T17:57:22.405Z,2.28
2023-04-20T17:59:49.318Z,2.30
2023-04-20T18:02:16.209Z,2.60
2023-04-20T18:04:43.406Z,3.20
2023-04-20T18:07:13.072Z,2.97
2023-04-20T18:09:40.193Z,3.00
2023-04-20T18:12:13.426Z,3.78
2023-04-20T18:14:41.006Z,4.22
2023-04-20T18:17:07.902Z,9.82
2023-04-20T18:19:34.799Z,19.95
2023-04-20T18:22:01.815Z,5.68
2023-04-20T18:24:28.686Z,4.82
2023-04-20T18:26:55.625Z,4.60
2023-04-20T18:29:22.494Z,6.75
2023-04-20T18:31:50.270Z,5.15
2023-04-20T18:34:17.361Z,5.43
2023-04-20T18:36:44.398Z,4.93
2023-04-20T18:39:11.316Z,5.38
2023-04-20T18:41:38.180Z,5.60
2023-04-20T18:44:05.376Z,5.72
2023-04-20T18:46:32.322Z,5.78
2023-04-20T18:48:59.331Z,6.18
2023-04-20T18:51:26.311Z,5.03
2023-04-20T18:53:53.194Z,6.90
2023-04-20T18:56:20.140Z,6.32
2023-04-20T18:58:46.919Z,7.35
2023-04-20T19:01:13.912Z,6.47
2023-04-20T19:03:40.982Z,6.30
2023-04-20T19:06:08.012Z,7.90
2023-04-20T19:08:34.910Z,6.70
2023-04-20T19:11:01.856Z,5.78
2023-04-20T19:13:28.796Z,6.22
2023-04-20T19:15:57.662Z,5.43
2023-04-20T19:18:27.721Z,4.25
2023-04-20T19:20:54.985Z,4.57
2023-04-20T19:23:22.238Z,5.05
2023-04-20T19:25:49.226Z,2.67
2023-04-20T19:28:16.244Z,3.80
2023-04-20T19:30:43.118Z,4.28
2023-04-20T19:33:10.290Z,3.17
2023-04-20T19:35:37.312Z,2.58
2023-04-20T19:38:04.195Z,2.78
2023-04-20T19:40:31.010Z,2.35
2023-04-20T19:42:58.084Z,2.22
2023-04-20T19:45:25.188Z,2.00
2023-04-20T19:47:52.398Z,1.60
2023-04-20T19:50:19.326Z,3.15
2023-04-20T19:52:46.225Z,2.00
2023-04-20T19:55:13.313Z,2.20
2023-04-20T19:57:40.301Z,2.20
2023-04-20T20:00:08.831Z,1.80
2023-04-20T20:02:38.464Z,1.60
2023-04-20T20:05:07.140Z,1.42
2023-04-20T20:07:34.515Z,1.60
2023-04-20T20:10:01.882Z,1.80
2023-04-20T20:12:28.982Z,1.50
2023-04-20T20:14:55.868Z,1.33
2023-04-20T20:17:22.900Z,1.80
2023-04-20T20:19:49.926Z,1.45
2023-04-20T20:22:16.930Z,1.60
2023-04-20T20:24:47.448Z,1.58
2023-04-20T20:27:14.621Z,1.30
2023-04-20T20:29:41.420Z,1.60
2023-04-20T20:32:08.310Z,1.50
2023-04-20T20:34:35.180Z,1.95
2023-04-20T20:37:04.441Z,1.90
2023-04-20T20:39:32.482Z,2.33
2023-04-20T20:41:59.753Z,2.15
2023-04-20T20:44:28.956Z,1.77
2023-04-20T20:46:55.911Z,2.20
2023-04-20T20:49:22.926Z,2.72
2023-04-20T20:51:49.878Z,2.60
2023-04-20T20:54:16.781Z,1.90
2023-04-20T20:56:43.868Z,1.98
2023-04-20T20:59:10.759Z,2.60
2023-04-20T21:01:37.683Z,2.50
2023-04-20T21:04:05.010Z,2.13
2023-04-20T21:06:33.706Z,2.38
2023-04-20T21:09:01.088Z,2.75
2023-04-20T21:11:27.970Z,2.50
2023-04-20T21:13:56.481Z,3.20
2023-04-20T21:16:23.551Z,2.42
2023-04-20T21:18:50.604Z,2.53
2023-04-20T21:21:17.346Z,2.15
2023-04-20T21:23:44.448Z,2.10
2023-04-20T21:26:11.276Z,2.05
2023-04-20T21:28:38.062Z,2.13
2023-04-20T21:31:05.047Z,1.30
2023-04-20T21:33:34.252Z,1.80
2023-04-20T21:36:01.192Z,1.55
2023-04-20T21:38:27.981Z,1.00
2023-04-20T21:40:54.729Z,1.00
2023-04-20T21:43:21.659Z,1.20
2023-04-20T21:45:48.614Z,0.90
2023-04-20T21:48:15.465Z,0.90
2023-04-20T21:50:42.266Z,1.30
2023-04-20T21:53:09.116Z,0.90
2023-04-20T21:55:35.895Z,1.00
2023-04-20T21:58:02.692Z,0.70
2023-04-20T22:00:29.445Z,0.75
2023-04-20T22:02:56.516Z,1.10
2023-04-20T22:05:23.423Z,0.52
2023-04-20T22:07:50.588Z,1.00
2023-04-20T22:10:17.358Z,0.90
2023-04-20T22:12:44.302Z,0.60
2023-04-20T22:15:13.678Z,0.50
2023-04-20T22:17:41.369Z,1.00
2023-04-20T22:20:10.587Z,0.30
2023-04-20T22:22:38.339Z,0.60
2023-04-20T22:25:06.512Z,0.70
2023-04-20T22:27:34.223Z,0.70
2023-04-20T22:30:01.060Z,0.55
2023-04-20T22:32:28.306Z,0.40
2023-04-20T22:34:55.083Z,0.47
2023-04-20T22:37:21.817Z,0.40
2023-04-20T22:39:48.766Z,0.55
2023-04-20T22:42:15.778Z,0.50
2023-04-20T22:44:42.546Z,0.50
2023-04-20T22:47:09.356Z,0.50
2023-04-20T22:49:37.539Z,0.60
2023-04-20T22:52:04.430Z,0.60
2023-04-20T22:54:31.236Z,0.25
2023-04-20T22:56:58.799Z,0.50
2023-04-20T22:59:25.610Z,0.50
2023-04-20T23:01:52.453Z,0.45
2023-04-20T23:04:19.313Z,0.50
2023-04-20T23:06:47.204Z,0.40
2023-04-20T23:09:17.431Z,0.52
2023-04-20T23:11:47.172Z,0.30
2023-04-20T23:14:14.201Z,0.65
2023-04-20T23:16:41.213Z,0.60
2023-04-20T23:19:08.420Z,0.60
2023-04-20T23:21:35.378Z,0.50
2023-04-20T23:24:02.278Z,0.70
2023-04-20T23:26:29.193Z,0.68
2023-04-20T23:28:56.110Z,0.90
2023-04-20T23:31:22.904Z,0.93
2023-04-20T23:33:50.135Z,1.08
2023-04-20T23:36:17.138Z,1.00
2023-04-20T23:38:44.086Z,1.10
2023-04-20T23:41:15.170Z,0.88
2023-04-20T23:43:42.533Z,1.05
2023-04-20T23:46:09.444Z,1.25
2023-04-20T23:48:36.338Z,1.10
2023-04-20T23:51:03.249Z,1.20
2023-04-20T23:53:30.098Z,1.17
2023-04-20T23:55:57.029Z,1.40
2023-04-20T23:58:28.185Z,1.38
